sensor_id;sensor_type;location;lat;lon;timestamp;P1;durP1;ratioP1;P2;durP2;ratioP2
18973;SDS011;9621;48.690;9.466;2022-10-16T00:01:03;10.27;;;2.75;;
18973;SDS011;9621;48.690;9.466;2022-10-16T00:03:31;8.50;;;2.40;;
18973;SDS011;9621;48.690;9.466;2022-10-16T00:05:59;13.95;;;3.00;;
18973;SDS011;9621;48.690;9.466;2022-10-16T00:08:27;3.17;;;2.08;;
18973;SDS011;9621;48.690;9.466;2022-10-16T00:10:58;9.55;;;3.13;;
18973;SDS011;9621;48.690;9.466;2022-10-16T00:13:25;9.65;;;2.92;;
18973;SDS011;9621;48.690;9.466;2022-10-16T00:15:54;14.85;;;3.15;;
18973;SDS011;9621;48.690;9.466;2022-10-16T00:18:23;4.18;;;2.22;;
18973;SDS011;9621;48.690;9.466;2022-10-16T00:20:50;6.93;;;2.53;;
18973;SDS011;9621;48.690;9.466;2022-10-16T00:23:17;9.02;;;2.80;;
18973;SDS011;9621;48.690;9.466;2022-10-16T00:25:44;4.40;;;2.50;;
18973;SDS011;9621;48.690;9.466;2022-10-16T00:28:11;5.03;;;2.58;;
18973;SDS011;9621;48.690;9.466;2022-10-16T00:30:38;5.78;;;2.58;;
18973;SDS011;9621;48.690;9.466;2022-10-16T00:33:05;5.72;;;2.33;;
18973;SDS011;9621;48.690;9.466;2022-10-16T00:35:33;15.18;;;3.10;;
18973;SDS011;9621;48.690;9.466;2022-10-16T00:38:00;7.80;;;2.90;;
18973;SDS011;9621;48.690;9.466;2022-10-16T00:40:27;9.43;;;2.90;;
18973;SDS011;9621;48.690;9.466;2022-10-16T00:42:54;13.00;;;3.38;;
18973;SDS011;9621;48.690;9.466;2022-10-16T00:45:21;5.90;;;2.67;;
18973;SDS011;9621;48.690;9.466;2022-10-16T00:47:48;8.52;;;3.40;;
18973;SDS011;9621;48.690;9.466;2022-10-16T00:50:21;7.25;;;2.85;;
18973;SDS011;9621;48.690;9.466;2022-10-16T00:52:54;7.07;;;2.55;;
18973;SDS011;9621;48.690;9.466;2022-10-16T00:55:22;15.43;;;3.22;;
18973;SDS011;9621;48.690;9.466;2022-10-16T00:57:49;8.77;;;4.13;;
18973;SDS011;9621;48.690;9.466;2022-10-16T01:00:18;7.47;;;3.05;;
18973;SDS011;9621;48.690;9.466;2022-10-16T01:02:51;10.45;;;3.28;;
18973;SDS011;9621;48.690;9.466;2022-10-16T01:05:18;8.75;;;3.42;;
18973;SDS011;9621;48.690;9.466;2022-10-16T01:07:49;6.63;;;2.83;;
18973;SDS011;9621;48.690;9.466;2022-10-16T01:10:26;13.57;;;3.45;;
18973;SDS011;9621;48.690;9.466;2022-10-16T01:13:06;7.53;;;2.67;;
18973;SDS011;9621;48.690;9.466;2022-10-16T01:15:36;13.63;;;2.58;;
18973;SDS011;9621;48.690;9.466;2022-10-16T01:18:08;10.80;;;2.78;;
18973;SDS011;9621;48.690;9.466;2022-10-16T01:20:40;11.68;;;3.17;;
18973;SDS011;9621;48.690;9.466;2022-10-16T01:23:18;8.70;;;2.92;;
18973;SDS011;9621;48.690;9.466;2022-10-16T01:26:03;11.70;;;3.45;;
18973;SDS011;9621;48.690;9.466;2022-10-16T01:28:39;7.05;;;3.00;;
18973;SDS011;9621;48.690;9.466;2022-10-16T01:31:11;12.68;;;3.58;;
18973;SDS011;9621;48.690;9.466;2022-10-16T01:33:42;5.45;;;3.35;;
18973;SDS011;9621;48.690;9.466;2022-10-16T01:36:13;9.82;;;3.30;;
18973;SDS011;9621;48.690;9.466;2022-10-16T01:38:42;11.77;;;3.55;;
18973;SDS011;9621;48.690;9.466;2022-10-16T01:41:13;6.20;;;3.10;;
18973;SDS011;9621;48.690;9.466;2022-10-16T01:43:45;10.15;;;3.20;;
18973;SDS011;9621;48.690;9.466;2022-10-16T01:46:15;7.95;;;3.25;;
18973;SDS011;9621;48.690;9.466;2022-10-16T01:48:44;4.88;;;2.88;;
18973;SDS011;9621;48.690;9.466;2022-10-16T01:51:12;8.30;;;3.00;;
18973;SDS011;9621;48.690;9.466;2022-10-16T01:53:41;9.35;;;3.00;;
18973;SDS011;9621;48.690;9.466;2022-10-16T01:56:12;14.07;;;3.22;;
18973;SDS011;9621;48.690;9.466;2022-10-16T01:58:42;13.73;;;3.58;;
18973;SDS011;9621;48.690;9.466;2022-10-16T02:01:15;8.15;;;3.10;;
18973;SDS011;9621;48.690;9.466;2022-10-16T02:03:45;10.77;;;3.35;;
18973;SDS011;9621;48.690;9.466;2022-10-16T02:06:14;8.18;;;3.00;;
18973;SDS011;9621;48.690;9.466;2022-10-16T02:08:41;7.40;;;3.05;;
18973;SDS011;9621;48.690;9.466;2022-10-16T02:11:09;4.95;;;3.10;;
18973;SDS011;9621;48.690;9.466;2022-10-16T02:13:37;5.55;;;3.42;;
18973;SDS011;9621;48.690;9.466;2022-10-16T02:16:11;10.88;;;3.47;;
18973;SDS011;9621;48.690;9.466;2022-10-16T02:18:39;8.27;;;3.38;;
18973;SDS011;9621;48.690;9.466;2022-10-16T02:21:07;9.77;;;2.72;;
18973;SDS011;9621;48.690;9.466;2022-10-16T02:23:42;9.20;;;3.17;;
18973;SDS011;9621;48.690;9.466;2022-10-16T02:26:15;8.35;;;2.88;;
18973;SDS011;9621;48.690;9.466;2022-10-16T02:28:47;8.90;;;3.40;;
18973;SDS011;9621;48.690;9.466;2022-10-16T02:31:22;11.77;;;3.80;;
18973;SDS011;9621;48.690;9.466;2022-10-16T02:33:52;9.27;;;2.72;;
18973;SDS011;9621;48.690;9.466;2022-10-16T02:36:22;5.15;;;2.90;;
18973;SDS011;9621;48.690;9.466;2022-10-16T02:38:50;12.85;;;3.35;;
18973;SDS011;9621;48.690;9.466;2022-10-16T02:41:17;15.18;;;2.80;;
18973;SDS011;9621;48.690;9.466;2022-10-16T02:43:46;5.70;;;2.80;;
18973;SDS011;9621;48.690;9.466;2022-10-16T02:46:14;12.18;;;3.22;;
18973;SDS011;9621;48.690;9.466;2022-10-16T02:48:42;9.13;;;3.55;;
18973;SDS011;9621;48.690;9.466;2022-10-16T02:51:09;10.07;;;3.42;;
18973;SDS011;9621;48.690;9.466;2022-10-16T02:53:36;6.30;;;3.28;;
18973;SDS011;9621;48.690;9.466;2022-10-16T02:56:03;7.32;;;3.05;;
18973;SDS011;9621;48.690;9.466;2022-10-16T02:58:30;8.65;;;2.67;;
18973;SDS011;9621;48.690;9.466;2022-10-16T03:00:57;6.45;;;2.92;;
18973;SDS011;9621;48.690;9.466;2022-10-16T03:03:24;5.80;;;3.08;;
18973;SDS011;9621;48.690;9.466;2022-10-16T03:05:52;5.82;;;2.95;;
18973;SDS011;9621;48.690;9.466;2022-10-16T03:08:19;5.93;;;2.95;;
18973;SDS011;9621;48.690;9.466;2022-10-16T03:10:48;7.15;;;2.90;;
18973;SDS011;9621;48.690;9.466;2022-10-16T03:13:15;8.30;;;2.90;;
18973;SDS011;9621;48.690;9.466;2022-10-16T03:15:45;9.95;;;3.47;;
18973;SDS011;9621;48.690;9.466;2022-10-16T03:18:12;5.45;;;3.17;;
18973;SDS011;9621;48.690;9.466;2022-10-16T03:20:39;5.20;;;3.03;;
18973;SDS011;9621;48.690;9.466;2022-10-16T03:23:07;8.52;;;3.53;;
18973;SDS011;9621;48.690;9.466;2022-10-16T03:25:34;6.40;;;3.00;;
18973;SDS011;9621;48.690;9.466;2022-10-16T03:28:01;8.18;;;2.92;;
18973;SDS011;9621;48.690;9.466;2022-10-16T03:30:29;5.30;;;2.90;;
18973;SDS011;9621;48.690;9.466;2022-10-16T03:32:56;14.10;;;3.13;;
18973;SDS011;9621;48.690;9.466;2022-10-16T03:35:23;7.13;;;3.00;;
18973;SDS011;9621;48.690;9.466;2022-10-16T03:37:50;8.98;;;2.78;;
18973;SDS011;9621;48.690;9.466;2022-10-16T03:40:19;6.53;;;2.60;;
18973;SDS011;9621;48.690;9.466;2022-10-16T03:42:45;4.53;;;2.55;;
18973;SDS011;9621;48.690;9.466;2022-10-16T03:45:12;4.95;;;2.67;;
18973;SDS011;9621;48.690;9.466;2022-10-16T03:47:39;6.82;;;3.45;;
18973;SDS011;9621;48.690;9.466;2022-10-16T03:50:06;4.13;;;2.70;;
18973;SDS011;9621;48.690;9.466;2022-10-16T03:52:33;8.02;;;3.10;;
18973;SDS011;9621;48.690;9.466;2022-10-16T03:55:00;7.88;;;3.17;;
18973;SDS011;9621;48.690;9.466;2022-10-16T03:57:28;5.90;;;2.45;;
18973;SDS011;9621;48.690;9.466;2022-10-16T03:59:55;6.88;;;2.85;;
18973;SDS011;9621;48.690;9.466;2022-10-16T04:02:22;10.65;;;2.95;;
18973;SDS011;9621;48.690;9.466;2022-10-16T04:04:49;7.65;;;2.83;;
18973;SDS011;9621;48.690;9.466;2022-10-16T04:07:16;4.60;;;2.45;;
18973;SDS011;9621;48.690;9.466;2022-10-16T04:09:44;7.13;;;2.70;;
18973;SDS011;9621;48.690;9.466;2022-10-16T04:12:10;9.43;;;2.50;;
18973;SDS011;9621;48.690;9.466;2022-10-16T04:14:39;6.63;;;3.15;;
18973;SDS011;9621;48.690;9.466;2022-10-16T04:17:05;9.32;;;3.20;;
18973;SDS011;9621;48.690;9.466;2022-10-16T04:19:32;7.78;;;3.42;;
18973;SDS011;9621;48.690;9.466;2022-10-16T04:21:59;8.85;;;2.65;;
18973;SDS011;9621;48.690;9.466;2022-10-16T04:24:26;7.13;;;2.58;;
18973;SDS011;9621;48.690;9.466;2022-10-16T04:26:52;5.80;;;3.10;;
18973;SDS011;9621;48.690;9.466;2022-10-16T04:29:19;4.60;;;2.58;;
18973;SDS011;9621;48.690;9.466;2022-10-16T04:31:48;5.78;;;2.65;;
18973;SDS011;9621;48.690;9.466;2022-10-16T04:34:14;7.95;;;2.58;;
18973;SDS011;9621;48.690;9.466;2022-10-16T04:36:41;13.77;;;2.45;;
18973;SDS011;9621;48.690;9.466;2022-10-16T04:39:08;12.88;;;2.80;;
18973;SDS011;9621;48.690;9.466;2022-10-16T04:41:35;11.25;;;2.97;;
18973;SDS011;9621;48.690;9.466;2022-10-16T04:44:02;5.18;;;2.22;;
18973;SDS011;9621;48.690;9.466;2022-10-16T04:46:29;7.18;;;2.13;;
18973;SDS011;9621;48.690;9.466;2022-10-16T07:11:02;4.82;;;2.65;;
18973;SDS011;9621;48.690;9.466;2022-10-16T07:13:32;7.00;;;2.75;;
18973;SDS011;9621;48.690;9.466;2022-10-16T07:16:03;5.15;;;3.08;;
18973;SDS011;9621;48.690;9.466;2022-10-16T07:18:30;7.00;;;3.55;;
18973;SDS011;9621;48.690;9.466;2022-10-16T07:21:02;9.13;;;3.20;;
18973;SDS011;9621;48.690;9.466;2022-10-16T07:23:30;4.47;;;2.88;;
18973;SDS011;9621;48.690;9.466;2022-10-16T07:25:57;7.57;;;3.22;;
18973;SDS011;9621;48.690;9.466;2022-10-16T07:28:25;8.75;;;3.92;;
18973;SDS011;9621;48.690;9.466;2022-10-16T07:30:52;10.40;;;6.38;;
18973;SDS011;9621;48.690;9.466;2022-10-16T07:33:19;8.15;;;4.30;;
18973;SDS011;9621;48.690;9.466;2022-10-16T07:35:47;8.52;;;4.00;;
18973;SDS011;9621;48.690;9.466;2022-10-16T07:38:15;5.20;;;3.67;;
18973;SDS011;9621;48.690;9.466;2022-10-16T07:40:42;6.22;;;4.00;;
18973;SDS011;9621;48.690;9.466;2022-10-16T07:43:09;12.90;;;4.57;;
18973;SDS011;9621;48.690;9.466;2022-10-16T07:45:37;8.20;;;4.85;;
18973;SDS011;9621;48.690;9.466;2022-10-16T07:48:12;9.02;;;4.43;;
18973;SDS011;9621;48.690;9.466;2022-10-16T07:50:39;5.03;;;3.70;;
18973;SDS011;9621;48.690;9.466;2022-10-16T07:53:06;9.20;;;3.67;;
18973;SDS011;9621;48.690;9.466;2022-10-16T07:55:33;23.33;;;13.32;;
18973;SDS011;9621;48.690;9.466;2022-10-16T07:58:00;12.15;;;6.78;;
18973;SDS011;9621;48.690;9.466;2022-10-16T08:00:27;12.13;;;6.00;;
18973;SDS011;9621;48.690;9.466;2022-10-16T08:02:55;13.27;;;6.00;;
18973;SDS011;9621;48.690;9.466;2022-10-16T08:05:25;8.15;;;4.63;;
18973;SDS011;9621;48.690;9.466;2022-10-16T08:07:51;10.48;;;4.75;;
18973;SDS011;9621;48.690;9.466;2022-10-16T08:10:19;8.40;;;5.28;;
18973;SDS011;9621;48.690;9.466;2022-10-16T08:12:47;7.55;;;4.05;;
18973;SDS011;9621;48.690;9.466;2022-10-16T08:15:14;6.85;;;3.30;;
18973;SDS011;9621;48.690;9.466;2022-10-16T08:17:41;6.80;;;3.03;;
18973;SDS011;9621;48.690;9.466;2022-10-16T08:20:10;5.70;;;3.10;;
18973;SDS011;9621;48.690;9.466;2022-10-16T08:22:37;9.35;;;2.70;;
18973;SDS011;9621;48.690;9.466;2022-10-16T08:25:04;4.38;;;2.65;;
18973;SDS011;9621;48.690;9.466;2022-10-16T08:27:31;10.10;;;2.70;;
18973;SDS011;9621;48.690;9.466;2022-10-16T08:29:59;8.85;;;2.92;;
18973;SDS011;9621;48.690;9.466;2022-10-16T08:32:25;4.07;;;2.60;;
18973;SDS011;9621;48.690;9.466;2022-10-16T08:34:52;6.70;;;3.22;;
18973;SDS011;9621;48.690;9.466;2022-10-16T08:37:20;5.38;;;2.53;;
18973;SDS011;9621;48.690;9.466;2022-10-16T08:39:49;3.88;;;2.67;;
18973;SDS011;9621;48.690;9.466;2022-10-16T08:42:28;6.70;;;2.63;;
18973;SDS011;9621;48.690;9.466;2022-10-16T08:45:08;12.05;;;2.42;;
18973;SDS011;9621;48.690;9.466;2022-10-16T08:47:48;6.85;;;2.00;;
18973;SDS011;9621;48.690;9.466;2022-10-16T08:50:21;3.63;;;2.42;;
18973;SDS011;9621;48.690;9.466;2022-10-16T08:52:51;7.05;;;2.33;;
18973;SDS011;9621;48.690;9.466;2022-10-16T08:55:29;4.10;;;2.10;;
18973;SDS011;9621;48.690;9.466;2022-10-16T08:57:59;4.07;;;1.67;;
18973;SDS011;9621;48.690;9.466;2022-10-16T09:00:27;2.38;;;1.70;;
18973;SDS011;9621;48.690;9.466;2022-10-16T09:02:56;3.58;;;1.70;;
18973;SDS011;9621;48.690;9.466;2022-10-16T09:05:43;3.58;;;1.73;;
18973;SDS011;9621;48.690;9.466;2022-10-16T09:08:24;4.38;;;1.85;;
18973;SDS011;9621;48.690;9.466;2022-10-16T09:10:57;4.25;;;1.92;;
18973;SDS011;9621;48.690;9.466;2022-10-16T09:13:32;5.18;;;2.28;;
18973;SDS011;9621;48.690;9.466;2022-10-16T09:16:12;3.17;;;1.95;;
18973;SDS011;9621;48.690;9.466;2022-10-16T09:18:48;4.72;;;2.00;;
18973;SDS011;9621;48.690;9.466;2022-10-16T09:21:21;4.07;;;2.42;;
18973;SDS011;9621;48.690;9.466;2022-10-16T09:23:52;5.97;;;2.10;;
18973;SDS011;9621;48.690;9.466;2022-10-16T09:26:23;6.50;;;2.65;;
18973;SDS011;9621;48.690;9.466;2022-10-16T09:28:52;5.95;;;2.30;;
18973;SDS011;9621;48.690;9.466;2022-10-16T09:31:21;5.97;;;2.00;;
18973;SDS011;9621;48.690;9.466;2022-10-16T09:33:50;4.45;;;2.30;;
18973;SDS011;9621;48.690;9.466;2022-10-16T09:36:20;4.05;;;1.98;;
18973;SDS011;9621;48.690;9.466;2022-10-16T09:38:49;4.93;;;2.30;;
18973;SDS011;9621;48.690;9.466;2022-10-16T09:41:21;3.47;;;1.90;;
18973;SDS011;9621;48.690;9.466;2022-10-16T09:43:52;8.13;;;2.10;;
18973;SDS011;9621;48.690;9.466;2022-10-16T09:46:22;3.25;;;1.65;;
18973;SDS011;9621;48.690;9.466;2022-10-16T09:48:53;2.63;;;1.73;;
18973;SDS011;9621;48.690;9.466;2022-10-16T09:51:23;4.63;;;1.40;;
18973;SDS011;9621;48.690;9.466;2022-10-16T09:53:54;3.55;;;1.60;;
18973;SDS011;9621;48.690;9.466;2022-10-16T09:56:25;7.50;;;2.58;;
18973;SDS011;9621;48.690;9.466;2022-10-16T09:58:54;3.83;;;1.70;;
18973;SDS011;9621;48.690;9.466;2022-10-16T10:01:23;2.15;;;1.52;;
18973;SDS011;9621;48.690;9.466;2022-10-16T10:03:55;4.57;;;1.60;;
18973;SDS011;9621;48.690;9.466;2022-10-16T10:06:27;2.80;;;1.55;;
18973;SDS011;9621;48.690;9.466;2022-10-16T10:09:00;4.53;;;1.67;;
18973;SDS011;9621;48.690;9.466;2022-10-16T10:11:38;3.60;;;1.40;;
18973;SDS011;9621;48.690;9.466;2022-10-16T10:14:17;3.05;;;1.38;;
18973;SDS011;9621;48.690;9.466;2022-10-16T10:17:01;4.38;;;1.38;;
18973;SDS011;9621;48.690;9.466;2022-10-16T10:19:38;2.97;;;1.42;;
18973;SDS011;9621;48.690;9.466;2022-10-16T10:22:13;2.38;;;1.55;;
18973;SDS011;9621;48.690;9.466;2022-10-16T10:24:53;2.58;;;1.52;;
18973;SDS011;9621;48.690;9.466;2022-10-16T10:27:23;2.38;;;1.52;;
18973;SDS011;9621;48.690;9.466;2022-10-16T10:29:58;3.45;;;1.60;;
18973;SDS011;9621;48.690;9.466;2022-10-16T10:32:32;3.05;;;1.55;;
18973;SDS011;9621;48.690;9.466;2022-10-16T10:35:11;3.63;;;1.60;;
18973;SDS011;9621;48.690;9.466;2022-10-16T10:37:54;3.78;;;1.58;;
18973;SDS011;9621;48.690;9.466;2022-10-16T10:40:34;4.68;;;1.70;;
18973;SDS011;9621;48.690;9.466;2022-10-16T10:43:15;2.83;;;1.40;;
18973;SDS011;9621;48.690;9.466;2022-10-16T10:45:51;3.47;;;1.30;;
18973;SDS011;9621;48.690;9.466;2022-10-16T10:48:24;2.10;;;1.40;;
18973;SDS011;9621;48.690;9.466;2022-10-16T10:51:10;3.85;;;1.15;;
18973;SDS011;9621;48.690;9.466;2022-10-16T10:53:42;3.78;;;1.20;;
18973;SDS011;9621;48.690;9.466;2022-10-16T10:56:22;3.63;;;1.27;;
18973;SDS011;9621;48.690;9.466;2022-10-16T10:59:12;4.30;;;1.50;;
18973;SDS011;9621;48.690;9.466;2022-10-16T11:02:03;1.38;;;1.20;;
18973;SDS011;9621;48.690;9.466;2022-10-16T11:04:43;2.33;;;1.27;;
18973;SDS011;9621;48.690;9.466;2022-10-16T11:07:20;5.47;;;1.27;;
18973;SDS011;9621;48.690;9.466;2022-10-16T11:09:51;2.67;;;1.10;;
18973;SDS011;9621;48.690;9.466;2022-10-16T11:12:23;3.35;;;1.25;;
18973;SDS011;9621;48.690;9.466;2022-10-16T11:14:56;1.83;;;1.23;;
18973;SDS011;9621;48.690;9.466;2022-10-16T11:17:27;2.90;;;1.55;;
18973;SDS011;9621;48.690;9.466;2022-10-16T11:19:58;2.35;;;0.93;;
18973;SDS011;9621;48.690;9.466;2022-10-16T11:22:31;2.30;;;1.42;;
18973;SDS011;9621;48.690;9.466;2022-10-16T11:25:04;4.03;;;1.10;;
18973;SDS011;9621;48.690;9.466;2022-10-16T11:27:40;1.38;;;1.05;;
18973;SDS011;9621;48.690;9.466;2022-10-16T11:30:14;2.42;;;1.10;;
18973;SDS011;9621;48.690;9.466;2022-10-16T11:32:49;3.33;;;1.13;;
18973;SDS011;9621;48.690;9.466;2022-10-16T11:35:36;2.20;;;1.05;;
18973;SDS011;9621;48.690;9.466;2022-10-16T11:38:09;5.05;;;1.08;;
18973;SDS011;9621;48.690;9.466;2022-10-16T11:40:42;3.03;;;1.00;;
18973;SDS011;9621;48.690;9.466;2022-10-16T11:43:13;1.33;;;0.90;;
18973;SDS011;9621;48.690;9.466;2022-10-16T11:45:48;2.65;;;1.10;;
18973;SDS011;9621;48.690;9.466;2022-10-16T11:48:22;4.63;;;1.42;;
18973;SDS011;9621;48.690;9.466;2022-10-16T11:50:54;6.30;;;1.73;;
18973;SDS011;9621;48.690;9.466;2022-10-16T11:53:31;3.88;;;1.33;;
18973;SDS011;9621;48.690;9.466;2022-10-16T11:56:08;3.65;;;1.33;;
18973;SDS011;9621;48.690;9.466;2022-10-16T11:58:41;1.92;;;1.25;;
18973;SDS011;9621;48.690;9.466;2022-10-16T12:01:18;2.83;;;1.15;;
18973;SDS011;9621;48.690;9.466;2022-10-16T12:03:56;2.38;;;1.17;;
18973;SDS011;9621;48.690;9.466;2022-10-16T12:06:33;2.70;;;1.20;;
18973;SDS011;9621;48.690;9.466;2022-10-16T12:09:04;1.25;;;1.05;;
18973;SDS011;9621;48.690;9.466;2022-10-16T12:11:32;5.07;;;1.35;;
18973;SDS011;9621;48.690;9.466;2022-10-16T12:14:17;1.73;;;1.38;;
18973;SDS011;9621;48.690;9.466;2022-10-16T12:16:52;3.75;;;1.10;;
18973;SDS011;9621;48.690;9.466;2022-10-16T12:19:22;1.98;;;1.30;;
18973;SDS011;9621;48.690;9.466;2022-10-16T12:21:50;2.40;;;1.23;;
18973;SDS011;9621;48.690;9.466;2022-10-16T12:24:22;4.07;;;1.50;;
18973;SDS011;9621;48.690;9.466;2022-10-16T12:26:58;1.77;;;1.20;;
18973;SDS011;9621;48.690;9.466;2022-10-16T12:29:30;1.70;;;1.02;;
18973;SDS011;9621;48.690;9.466;2022-10-16T12:32:01;3.15;;;1.50;;
18973;SDS011;9621;48.690;9.466;2022-10-16T12:34:32;4.05;;;1.35;;
18973;SDS011;9621;48.690;9.466;2022-10-16T12:37:12;3.00;;;1.10;;
18973;SDS011;9621;48.690;9.466;2022-10-16T12:39:40;2.80;;;1.25;;
18973;SDS011;9621;48.690;9.466;2022-10-16T12:42:19;1.73;;;1.15;;
18973;SDS011;9621;48.690;9.466;2022-10-16T12:44:49;1.85;;;1.08;;
18973;SDS011;9621;48.690;9.466;2022-10-16T12:47:35;1.58;;;1.20;;
18973;SDS011;9621;48.690;9.466;2022-10-16T12:50:03;2.08;;;1.20;;
18973;SDS011;9621;48.690;9.466;2022-10-16T12:52:49;1.40;;;0.80;;
18973;SDS011;9621;48.690;9.466;2022-10-16T12:55:16;2.05;;;1.10;;
18973;SDS011;9621;48.690;9.466;2022-10-16T12:57:47;1.98;;;1.02;;
18973;SDS011;9621;48.690;9.466;2022-10-16T13:00:28;6.05;;;1.30;;
18973;SDS011;9621;48.690;9.466;2022-10-16T13:06:07;1.10;;;1.00;;
18973;SDS011;9621;48.690;9.466;2022-10-16T13:08:51;1.92;;;1.17;;
18973;SDS011;9621;48.690;9.466;2022-10-16T13:11:32;3.45;;;1.40;;
18973;SDS011;9621;48.690;9.466;2022-10-16T13:14:16;1.27;;;1.05;;
18973;SDS011;9621;48.690;9.466;2022-10-16T13:17:04;5.82;;;1.15;;
18973;SDS011;9621;48.690;9.466;2022-10-16T13:19:41;1.60;;;1.10;;
18973;SDS011;9621;48.690;9.466;2022-10-16T13:22:15;1.70;;;1.10;;
18973;SDS011;9621;48.690;9.466;2022-10-16T13:24:51;1.45;;;1.00;;
18973;SDS011;9621;48.690;9.466;2022-10-16T13:27:29;2.45;;;1.30;;
18973;SDS011;9621;48.690;9.466;2022-10-16T13:30:08;2.90;;;1.02;;
18973;SDS011;9621;48.690;9.466;2022-10-16T13:32:38;1.40;;;1.10;;
18973;SDS011;9621;48.690;9.466;2022-10-16T13:35:19;6.80;;;1.17;;
18973;SDS011;9621;48.690;9.466;2022-10-16T13:37:48;1.95;;;1.17;;
18973;SDS011;9621;48.690;9.466;2022-10-16T13:40:19;5.45;;;1.15;;
18973;SDS011;9621;48.690;9.466;2022-10-16T13:42:48;3.30;;;1.20;;
18973;SDS011;9621;48.690;9.466;2022-10-16T13:45:19;2.40;;;1.30;;
18973;SDS011;9621;48.690;9.466;2022-10-16T13:47:47;2.00;;;1.40;;
18973;SDS011;9621;48.690;9.466;2022-10-16T13:50:15;2.60;;;1.48;;
18973;SDS011;9621;48.690;9.466;2022-10-16T13:52:44;1.95;;;1.20;;
18973;SDS011;9621;48.690;9.466;2022-10-16T13:55:12;1.92;;;1.30;;
18973;SDS011;9621;48.690;9.466;2022-10-16T13:57:39;1.40;;;1.20;;
18973;SDS011;9621;48.690;9.466;2022-10-16T14:00:20;7.13;;;1.77;;
18973;SDS011;9621;48.690;9.466;2022-10-16T14:02:52;4.47;;;1.73;;
18973;SDS011;9621;48.690;9.466;2022-10-16T14:05:23;3.90;;;1.30;;
18973;SDS011;9621;48.690;9.466;2022-10-16T14:07:52;2.45;;;1.60;;
18973;SDS011;9621;48.690;9.466;2022-10-16T14:10:22;1.42;;;1.10;;
18973;SDS011;9621;48.690;9.466;2022-10-16T14:12:55;2.20;;;1.10;;
18973;SDS011;9621;48.690;9.466;2022-10-16T14:15:26;1.67;;;1.20;;
18973;SDS011;9621;48.690;9.466;2022-10-16T14:17:55;2.88;;;1.40;;
18973;SDS011;9621;48.690;9.466;2022-10-16T14:20:24;9.50;;;1.50;;
18973;SDS011;9621;48.690;9.466;2022-10-16T14:23:02;1.63;;;1.10;;
18973;SDS011;9621;48.690;9.466;2022-10-16T14:25:31;1.40;;;1.13;;
18973;SDS011;9621;48.690;9.466;2022-10-16T14:28:00;3.33;;;1.38;;
18973;SDS011;9621;48.690;9.466;2022-10-16T14:30:29;2.78;;;1.20;;
18973;SDS011;9621;48.690;9.466;2022-10-16T14:32:59;1.20;;;1.10;;
18973;SDS011;9621;48.690;9.466;2022-10-16T14:35:29;3.85;;;1.17;;
18973;SDS011;9621;48.690;9.466;2022-10-16T14:37:57;6.18;;;1.45;;
18973;SDS011;9621;48.690;9.466;2022-10-16T14:40:28;1.90;;;1.27;;
18973;SDS011;9621;48.690;9.466;2022-10-16T14:42:56;2.58;;;1.25;;
18973;SDS011;9621;48.690;9.466;2022-10-16T14:45:26;2.20;;;1.30;;
18973;SDS011;9621;48.690;9.466;2022-10-16T14:47:55;3.08;;;1.23;;
18973;SDS011;9621;48.690;9.466;2022-10-16T14:50:24;7.43;;;1.30;;
18973;SDS011;9621;48.690;9.466;2022-10-16T14:52:51;4.53;;;1.60;;
18973;SDS011;9621;48.690;9.466;2022-10-16T14:55:18;2.78;;;1.60;;
18973;SDS011;9621;48.690;9.466;2022-10-16T14:57:47;1.50;;;1.20;;
18973;SDS011;9621;48.690;9.466;2022-10-16T15:00:16;4.28;;;1.50;;
18973;SDS011;9621;48.690;9.466;2022-10-16T15:02:45;3.38;;;1.42;;
18973;SDS011;9621;48.690;9.466;2022-10-16T15:05:15;4.38;;;1.50;;
18973;SDS011;9621;48.690;9.466;2022-10-16T15:07:44;3.08;;;1.40;;
18973;SDS011;9621;48.690;9.466;2022-10-16T15:10:11;3.47;;;1.73;;
18973;SDS011;9621;48.690;9.466;2022-10-16T15:12:39;5.32;;;1.35;;
18973;SDS011;9621;48.690;9.466;2022-10-16T15:15:20;8.13;;;1.50;;
18973;SDS011;9621;48.690;9.466;2022-10-16T15:17:51;4.97;;;1.48;;
18973;SDS011;9621;48.690;9.466;2022-10-16T15:20:21;11.35;;;1.90;;
18973;SDS011;9621;48.690;9.466;2022-10-16T15:22:48;1.88;;;1.48;;
18973;SDS011;9621;48.690;9.466;2022-10-16T15:25:17;7.22;;;1.40;;
18973;SDS011;9621;48.690;9.466;2022-10-16T15:28:00;7.40;;;1.95;;
18973;SDS011;9621;48.690;9.466;2022-10-16T15:30:30;8.00;;;1.33;;
18973;SDS011;9621;48.690;9.466;2022-10-16T15:32:58;5.80;;;1.55;;
18973;SDS011;9621;48.690;9.466;2022-10-16T15:35:25;2.97;;;1.52;;
18973;SDS011;9621;48.690;9.466;2022-10-16T15:37:51;7.20;;;1.95;;
18973;SDS011;9621;48.690;9.466;2022-10-16T15:40:19;4.03;;;1.42;;
18973;SDS011;9621;48.690;9.466;2022-10-16T15:42:47;5.10;;;1.50;;
18973;SDS011;9621;48.690;9.466;2022-10-16T15:45:14;7.50;;;1.70;;
18973;SDS011;9621;48.690;9.466;2022-10-16T15:47:43;6.50;;;1.80;;
18973;SDS011;9621;48.690;9.466;2022-10-16T15:50:11;11.18;;;1.73;;
18973;SDS011;9621;48.690;9.466;2022-10-16T15:52:38;4.55;;;1.30;;
18973;SDS011;9621;48.690;9.466;2022-10-16T15:55:07;7.85;;;1.40;;
18973;SDS011;9621;48.690;9.466;2022-10-16T15:57:34;2.53;;;1.38;;
18973;SDS011;9621;48.690;9.466;2022-10-16T16:00:04;3.13;;;1.70;;
18973;SDS011;9621;48.690;9.466;2022-10-16T16:02:32;8.77;;;1.67;;
18973;SDS011;9621;48.690;9.466;2022-10-16T16:05:01;5.32;;;1.50;;
18973;SDS011;9621;48.690;9.466;2022-10-16T16:07:28;5.85;;;1.70;;
18973;SDS011;9621;48.690;9.466;2022-10-16T16:09:58;8.10;;;1.50;;
18973;SDS011;9621;48.690;9.466;2022-10-16T16:12:24;12.90;;;1.80;;
18973;SDS011;9621;48.690;9.466;2022-10-16T16:14:51;9.10;;;1.60;;
18973;SDS011;9621;48.690;9.466;2022-10-16T16:17:18;11.20;;;1.90;;
18973;SDS011;9621;48.690;9.466;2022-10-16T16:19:45;3.08;;;1.35;;
18973;SDS011;9621;48.690;9.466;2022-10-16T16:22:14;9.98;;;2.10;;
18973;SDS011;9621;48.690;9.466;2022-10-16T16:24:40;12.60;;;2.08;;
18973;SDS011;9621;48.690;9.466;2022-10-16T16:27:07;2.95;;;1.83;;
18973;SDS011;9621;48.690;9.466;2022-10-16T16:29:34;4.22;;;1.80;;
18973;SDS011;9621;48.690;9.466;2022-10-16T16:32:01;5.65;;;1.65;;
18973;SDS011;9621;48.690;9.466;2022-10-16T16:34:29;5.22;;;2.35;;
18973;SDS011;9621;48.690;9.466;2022-10-16T16:36:56;5.85;;;1.73;;
18973;SDS011;9621;48.690;9.466;2022-10-16T16:39:24;5.97;;;1.67;;
18973;SDS011;9621;48.690;9.466;2022-10-16T16:41:51;6.10;;;1.73;;
18973;SDS011;9621;48.690;9.466;2022-10-16T16:44:18;6.80;;;2.17;;
18973;SDS011;9621;48.690;9.466;2022-10-16T16:46:45;6.22;;;1.60;;
18973;SDS011;9621;48.690;9.466;2022-10-16T16:49:12;5.45;;;1.83;;
18973;SDS011;9621;48.690;9.466;2022-10-16T16:51:40;4.53;;;1.38;;
18973;SDS011;9621;48.690;9.466;2022-10-16T16:54:09;11.27;;;1.75;;
18973;SDS011;9621;48.690;9.466;2022-10-16T16:56:39;4.13;;;1.98;;
18973;SDS011;9621;48.690;9.466;2022-10-16T16:59:10;11.45;;;2.25;;
18973;SDS011;9621;48.690;9.466;2022-10-16T17:01:38;7.57;;;1.92;;
18973;SDS011;9621;48.690;9.466;2022-10-16T17:04:05;5.57;;;2.05;;
18973;SDS011;9621;48.690;9.466;2022-10-16T17:06:33;8.50;;;2.25;;
18973;SDS011;9621;48.690;9.466;2022-10-16T17:09:00;7.95;;;2.42;;
18973;SDS011;9621;48.690;9.466;2022-10-16T17:11:29;9.13;;;2.35;;
18973;SDS011;9621;48.690;9.466;2022-10-16T17:13:57;5.53;;;2.03;;
18973;SDS011;9621;48.690;9.466;2022-10-16T17:16:25;9.63;;;2.35;;
18973;SDS011;9621;48.690;9.466;2022-10-16T17:18:53;4.20;;;1.80;;
18973;SDS011;9621;48.690;9.466;2022-10-16T17:21:21;8.55;;;2.03;;
18973;SDS011;9621;48.690;9.466;2022-10-16T17:23:50;6.72;;;2.42;;
18973;SDS011;9621;48.690;9.466;2022-10-16T17:26:17;4.93;;;2.17;;
18973;SDS011;9621;48.690;9.466;2022-10-16T17:28:44;6.55;;;1.98;;
18973;SDS011;9621;48.690;9.466;2022-10-16T17:31:14;4.38;;;1.90;;
18973;SDS011;9621;48.690;9.466;2022-10-16T17:33:42;5.35;;;1.80;;
18973;SDS011;9621;48.690;9.466;2022-10-16T17:36:09;5.78;;;2.33;;
18973;SDS011;9621;48.690;9.466;2022-10-16T17:38:38;4.25;;;1.95;;
18973;SDS011;9621;48.690;9.466;2022-10-16T17:41:15;9.00;;;2.30;;
18973;SDS011;9621;48.690;9.466;2022-10-16T17:43:44;9.27;;;1.95;;
18973;SDS011;9621;48.690;9.466;2022-10-16T17:46:14;6.30;;;2.40;;